createdAt,value
2019-03-10T00:02:14.979Z,7.48
2019-03-10T00:04:45.526Z,7.40
2019-03-10T00:07:16.032Z,7.30
2019-03-10T00:09:45.540Z,7.22
2019-03-10T00:12:15.975Z,7.17
2019-03-10T00:14:45.478Z,7.16
2019-03-10T00:17:15.558Z,7.10
2019-03-10T00:19:45.106Z,7.12
2019-03-10T00:22:14.610Z,7.06
2019-03-10T00:24:44.239Z,6.99
2019-03-10T00:27:14.114Z,7.00
2019-03-10T00:29:43.643Z,7.01
2019-03-10T00:32:13.309Z,6.98
2019-03-10T00:34:44.049Z,6.85
2019-03-10T00:37:13.659Z,6.80
2019-03-10T00:40:23.903Z,6.80
2019-03-10T00:43:31.443Z,6.74
2019-03-10T00:46:39.204Z,6.70
2019-03-10T00:49:42.732Z,6.80
2019-03-10T00:52:19.353Z,6.80
2019-03-10T00:54:48.776Z,6.70
2019-03-10T00:57:18.285Z,6.66
2019-03-10T00:59:48.731Z,6.80
2019-03-10T01:02:19.121Z,6.79
2019-03-10T01:04:51.795Z,6.70
2019-03-10T01:07:23.649Z,6.71
2019-03-10T01:09:53.163Z,6.63
2019-03-10T01:12:22.908Z,6.70
2019-03-10T01:14:52.855Z,6.76
2019-03-10T01:17:22.348Z,6.78
2019-03-10T01:19:53.811Z,6.75
2019-03-10T01:22:24.275Z,6.89
2019-03-10T01:24:54.174Z,6.86
2019-03-10T01:27:24.772Z,6.86
2019-03-10T01:29:55.771Z,6.73
2019-03-10T01:32:35.901Z,6.65
2019-03-10T01:35:14.575Z,6.69
2019-03-10T01:37:44.359Z,6.80
2019-03-10T01:40:24.661Z,6.72
2019-03-10T01:42:56.137Z,6.72
2019-03-10T01:45:26.637Z,6.80
2019-03-10T01:48:01.080Z,6.86
2019-03-10T01:50:31.462Z,6.82
2019-03-10T01:53:01.962Z,6.90
2019-03-10T01:55:31.726Z,6.89
2019-03-10T01:58:01.432Z,6.97
2019-03-10T02:00:31.079Z,7.02
2019-03-10T02:03:01.324Z,7.10
2019-03-10T02:05:30.813Z,7.00
2019-03-10T02:08:01.138Z,6.95
2019-03-10T02:10:30.600Z,7.01
2019-03-10T02:13:00.015Z,6.98
2019-03-10T02:15:31.789Z,7.10
2019-03-10T02:18:03.815Z,7.07
2019-03-10T02:20:33.432Z,7.12
2019-03-10T02:23:03.001Z,7.19
2019-03-10T02:25:32.675Z,7.13
2019-03-10T02:28:03.086Z,7.08
2019-03-10T02:30:33.122Z,7.11
2019-03-10T02:33:02.678Z,7.14
2019-03-10T02:35:43.856Z,7.07
2019-03-10T02:38:14.614Z,7.19
2019-03-10T02:40:44.143Z,7.22
2019-03-10T02:43:16.454Z,7.16
2019-03-10T02:45:45.915Z,7.17
2019-03-10T02:48:15.741Z,7.16
2019-03-10T02:50:45.503Z,7.30
2019-03-10T02:53:15.108Z,7.20
2019-03-10T02:55:47.452Z,7.18
2019-03-10T02:58:17.431Z,7.16
2019-03-10T03:00:46.974Z,7.17
2019-03-10T03:03:17.323Z,7.19
2019-03-10T03:05:48.605Z,7.18
2019-03-10T03:08:19.524Z,7.17
2019-03-10T03:10:49.041Z,7.13
2019-03-10T03:13:19.035Z,7.13
2019-03-10T03:15:48.546Z,7.10
2019-03-10T03:18:18.157Z,7.13
2019-03-10T03:20:47.627Z,7.18
2019-03-10T03:23:17.201Z,7.12
2019-03-10T03:25:46.901Z,7.12
2019-03-10T03:28:16.522Z,7.13
2019-03-10T03:30:46.118Z,7.12
2019-03-10T03:33:15.763Z,7.09
2019-03-10T03:35:53.936Z,7.01
2019-03-10T03:38:38.124Z,6.94
2019-03-10T03:41:13.642Z,6.90
2019-03-10T03:43:43.263Z,6.90
2019-03-10T03:46:12.823Z,6.84
2019-03-10T03:48:42.440Z,6.81
2019-03-10T03:51:11.957Z,6.86
2019-03-10T03:53:41.542Z,6.82
2019-03-10T03:56:11.287Z,6.74
2019-03-10T03:58:40.825Z,6.70
2019-03-10T04:01:16.659Z,6.72
2019-03-10T04:03:46.393Z,6.72
2019-03-10T04:06:15.901Z,6.63
2019-03-10T04:08:45.365Z,6.64
2019-03-10T04:11:14.942Z,6.64
2019-03-10T04:13:44.822Z,6.54
2019-03-10T04:16:14.340Z,6.60
2019-03-10T04:18:43.842Z,6.75
2019-03-10T04:21:13.258Z,6.91
2019-03-10T04:23:42.738Z,6.81
2019-03-10T04:26:12.289Z,6.71
2019-03-10T04:28:41.639Z,6.59
2019-03-10T04:31:11.034Z,6.64
2019-03-10T04:33:40.379Z,6.51
2019-03-10T04:36:09.804Z,6.45
2019-03-10T04:38:39.164Z,6.28
2019-03-10T04:41:08.603Z,6.26
2019-03-10T04:43:38.172Z,6.23
2019-03-10T04:46:07.801Z,6.17
2019-03-10T04:48:37.275Z,6.08
2019-03-10T04:51:06.735Z,6.07
2019-03-10T04:53:36.162Z,6.00
2019-03-10T04:56:16.536Z,5.93
2019-03-10T04:58:49.477Z,5.91
2019-03-10T05:01:19.349Z,5.82
2019-03-10T05:03:48.885Z,5.81
2019-03-10T05:06:18.281Z,5.82
2019-03-10T05:08:47.789Z,5.74
2019-03-10T05:11:17.186Z,5.75
2019-03-10T05:13:46.620Z,5.68
2019-03-10T05:16:16.142Z,5.57
2019-03-10T05:18:45.544Z,5.53
2019-03-10T05:21:14.963Z,5.57
2019-03-10T05:23:45.324Z,5.57
2019-03-10T05:26:16.229Z,5.52
2019-03-10T05:28:49.095Z,5.50
2019-03-10T05:31:18.541Z,5.46
2019-03-10T05:33:47.953Z,5.43
2019-03-10T05:36:17.539Z,5.43
2019-03-10T05:38:47.145Z,5.43
2019-03-10T05:41:16.758Z,5.41
2019-03-10T05:43:46.387Z,5.44
2019-03-10T05:46:15.967Z,5.43
2019-03-10T05:48:45.298Z,5.36
2019-03-10T05:51:14.761Z,5.35
2019-03-10T05:53:44.348Z,5.34
2019-03-10T05:56:13.951Z,5.28
2019-03-10T05:58:43.452Z,5.27
2019-03-10T06:01:13.068Z,5.28
2019-03-10T06:03:42.468Z,5.31
2019-03-10T06:06:12.009Z,5.33
2019-03-10T06:08:41.447Z,5.32
2019-03-10T06:11:10.988Z,5.28
2019-03-10T06:13:40.768Z,5.28
2019-03-10T06:16:10.291Z,5.30
2019-03-10T06:18:39.775Z,5.34
2019-03-10T06:21:09.406Z,5.38
2019-03-10T06:23:38.798Z,5.35
2019-03-10T06:26:08.294Z,5.34
2019-03-10T06:28:37.643Z,5.32
2019-03-10T06:31:07.260Z,5.31
2019-03-10T06:33:36.682Z,5.29
2019-03-10T06:36:06.157Z,5.31
2019-03-10T06:38:35.644Z,5.32
2019-03-10T06:41:05.381Z,5.30
2019-03-10T06:43:34.823Z,5.29
2019-03-10T06:46:04.339Z,5.30
2019-03-10T06:48:33.869Z,5.32
2019-03-10T06:51:03.369Z,5.35
2019-03-10T06:53:32.908Z,5.36
2019-03-10T06:56:02.441Z,5.38
2019-03-10T06:58:31.982Z,5.42
2019-03-10T07:01:01.393Z,5.44
2019-03-10T07:03:30.897Z,5.47
2019-03-10T07:06:00.367Z,5.50
2019-03-10T07:08:29.783Z,5.53
2019-03-10T07:10:59.234Z,5.54
2019-03-10T07:13:28.719Z,5.54
2019-03-10T07:15:58.453Z,5.56
2019-03-10T07:18:27.961Z,5.67
2019-03-10T07:20:57.877Z,5.75
2019-03-10T07:23:27.447Z,5.79
2019-03-10T07:26:06.289Z,5.83
2019-03-10T07:29:00.662Z,5.88
2019-03-10T07:32:01.306Z,5.92
2019-03-10T07:34:55.493Z,5.95
2019-03-10T07:37:46.620Z,5.96
2019-03-10T07:40:40.949Z,5.98
2019-03-10T07:43:41.282Z,6.06
2019-03-10T07:46:44.680Z,6.13
2019-03-10T07:49:44.675Z,6.29
2019-03-10T07:52:31.696Z,6.40
2019-03-10T07:55:07.947Z,6.44
2019-03-10T07:57:56.282Z,6.40
2019-03-10T08:00:59.945Z,6.35
2019-03-10T08:03:51.283Z,6.35
2019-03-10T08:06:48.638Z,6.36
2019-03-10T08:09:36.992Z,6.44
2019-03-10T08:12:40.549Z,6.49
2019-03-10T08:15:17.149Z,6.46
2019-03-10T08:17:52.498Z,6.33
2019-03-10T08:20:30.508Z,6.28
2019-03-10T08:23:26.428Z,6.26
2019-03-10T08:26:16.415Z,6.33
2019-03-10T08:28:54.197Z,6.52
2019-03-10T08:31:42.640Z,6.78
2019-03-10T08:34:32.332Z,6.99
2019-03-10T08:37:19.117Z,7.12
2019-03-10T08:40:05.879Z,7.23
2019-03-10T08:42:41.801Z,7.28
2019-03-10T08:45:36.175Z,7.25
2019-03-10T08:48:42.548Z,7.04
2019-03-10T08:51:31.430Z,6.83
2019-03-10T08:54:14.372Z,6.73
2019-03-10T08:57:05.782Z,6.69
2019-03-10T09:00:00.373Z,6.63
2019-03-10T09:02:41.169Z,6.61
2019-03-10T09:05:27.978Z,6.62
2019-03-10T09:08:07.279Z,6.70
2019-03-10T09:10:54.087Z,6.80
2019-03-10T09:13:42.473Z,7.09
2019-03-10T09:16:39.744Z,7.22
2019-03-10T09:19:25.529Z,7.15
2019-03-10T09:22:02.602Z,7.21
2019-03-10T09:24:49.706Z,7.21
2019-03-10T09:27:36.124Z,7.26
2019-03-10T09:30:35.103Z,7.35
2019-03-10T09:33:23.501Z,7.39
2019-03-10T09:36:26.968Z,7.49
2019-03-10T09:39:18.079Z,7.61
2019-03-10T09:42:06.394Z,7.66
2019-03-10T09:45:03.921Z,7.76
2019-03-10T09:47:48.934Z,7.85
2019-03-10T09:50:40.715Z,7.92
2019-03-10T09:53:36.492Z,7.70
2019-03-10T09:56:28.234Z,7.42
2019-03-10T09:59:19.595Z,7.43
2019-03-10T10:02:11.107Z,7.47
2019-03-10T10:05:02.541Z,7.54
2019-03-10T10:07:47.277Z,7.54
2019-03-10T10:10:22.251Z,7.45
2019-03-10T10:13:16.149Z,7.16
2019-03-10T10:16:01.284Z,7.41
2019-03-10T10:18:38.416Z,7.90
2019-03-10T10:21:33.238Z,8.06
2019-03-10T10:24:27.091Z,7.84
2019-03-10T10:27:13.899Z,7.36
2019-03-10T10:29:55.957Z,7.17
2019-03-10T10:32:45.799Z,7.15
2019-03-10T10:35:52.983Z,7.09
2019-03-10T10:38:34.581Z,6.95
2019-03-10T10:41:26.106Z,6.86
2019-03-10T10:44:14.720Z,6.89
2019-03-10T10:47:09.280Z,7.13
2019-03-10T10:49:49.552Z,7.41
2019-03-10T10:52:41.259Z,7.56
2019-03-10T10:55:18.994Z,7.60
2019-03-10T10:58:05.395Z,7.81
2019-03-10T11:00:52.907Z,8.11
2019-03-10T11:03:39.990Z,8.30
2019-03-10T11:06:34.429Z,8.27
2019-03-10T11:09:16.008Z,8.07
2019-03-10T11:12:03.391Z,8.04
2019-03-10T11:14:54.795Z,8.02
2019-03-10T11:17:43.503Z,8.10
2019-03-10T11:20:23.155Z,8.19
2019-03-10T11:23:02.962Z,8.18
2019-03-10T11:25:48.845Z,8.10
2019-03-10T11:28:43.509Z,8.02
2019-03-10T11:31:32.150Z,7.99
2019-03-10T11:34:09.969Z,7.93
2019-03-10T11:36:50.864Z,7.89
2019-03-10T11:39:57.743Z,7.89
2019-03-10T11:42:55.135Z,7.84
2019-03-10T11:45:43.887Z,7.83
2019-03-10T11:48:35.642Z,7.87
2019-03-10T11:51:27.181Z,7.99
2019-03-10T11:54:18.527Z,8.05
2019-03-10T11:57:13.435Z,8.00
2019-03-10T11:59:51.704Z,8.21
2019-03-10T12:02:31.146Z,8.22
2019-03-10T12:05:08.240Z,7.95
2019-03-10T12:08:03.003Z,7.60
2019-03-10T12:10:33.003Z,7.72
2019-03-10T12:13:02.801Z,8.25
2019-03-10T12:15:33.089Z,8.50
2019-03-10T12:18:03.052Z,8.77
2019-03-10T12:20:33.460Z,8.93
2019-03-10T12:23:03.361Z,9.01
2019-03-10T12:25:33.418Z,9.04
2019-03-10T12:28:03.361Z,8.97
2019-03-10T12:30:33.307Z,8.89
2019-03-10T12:33:03.233Z,8.83
2019-03-10T12:35:34.634Z,8.75
2019-03-10T12:38:04.918Z,8.72
2019-03-10T12:40:34.862Z,8.90
2019-03-10T12:43:04.761Z,9.06
2019-03-10T12:45:34.474Z,9.06
2019-03-10T12:48:04.283Z,9.32
2019-03-10T12:50:34.041Z,9.73
2019-03-10T12:53:03.869Z,10.22
2019-03-10T12:55:33.686Z,10.55
2019-03-10T12:58:03.559Z,10.66
2019-03-10T13:00:33.559Z,10.49
2019-03-10T13:03:03.525Z,10.62
2019-03-10T13:05:33.427Z,10.85
2019-03-10T13:08:03.378Z,10.61
2019-03-10T13:10:33.381Z,10.22
2019-03-10T13:13:03.335Z,9.86
2019-03-10T13:15:33.178Z,9.53
2019-03-10T13:18:03.007Z,9.33
2019-03-10T13:20:34.068Z,9.29
2019-03-10T13:23:04.113Z,9.26
2019-03-10T13:25:34.149Z,9.28
2019-03-10T13:28:03.984Z,9.34
2019-03-10T13:30:33.849Z,9.38
2019-03-10T13:33:03.734Z,9.40
2019-03-10T13:35:33.777Z,9.39
2019-03-10T13:38:04.229Z,9.25
2019-03-10T13:40:34.025Z,9.20
2019-03-10T13:43:03.978Z,9.13
2019-03-10T13:45:33.792Z,9.17
2019-03-10T13:48:03.633Z,9.34
2019-03-10T13:50:33.543Z,9.73
2019-03-10T13:53:03.520Z,9.89
2019-03-10T13:55:33.541Z,9.99
2019-03-10T13:58:03.469Z,10.07
2019-03-10T14:00:33.425Z,10.09
2019-03-10T14:03:03.792Z,10.10
2019-03-10T14:05:34.126Z,10.14
2019-03-10T14:08:04.085Z,10.07
2019-03-10T14:10:34.839Z,9.91
2019-03-10T14:13:04.881Z,10.07
2019-03-10T14:15:34.791Z,10.62
2019-03-10T14:18:04.868Z,11.69
2019-03-10T14:20:34.820Z,12.64
2019-03-10T14:23:04.898Z,11.69
2019-03-10T14:25:34.938Z,10.65
2019-03-10T14:28:04.890Z,10.17
2019-03-10T14:30:35.125Z,9.93
2019-03-10T14:33:05.060Z,9.81
2019-03-10T14:35:35.014Z,9.64
2019-03-10T14:38:04.964Z,9.39
2019-03-10T14:40:35.387Z,9.20
2019-03-10T14:43:05.262Z,8.97
2019-03-10T14:45:35.219Z,8.64
2019-03-10T14:48:05.187Z,8.50
2019-03-10T14:50:35.484Z,8.25
2019-03-10T14:53:05.490Z,8.14
2019-03-10T14:55:35.638Z,8.09
2019-03-10T14:58:05.575Z,8.03
2019-03-10T15:00:35.629Z,7.88
2019-03-10T15:03:05.424Z,7.85
2019-03-10T15:05:35.373Z,7.74
2019-03-10T15:08:05.318Z,7.74
2019-03-10T15:10:35.195Z,7.68
2019-03-10T15:13:06.173Z,7.73
2019-03-10T15:15:36.155Z,7.78
2019-03-10T15:18:06.190Z,7.90
2019-03-10T15:20:36.202Z,7.95
2019-03-10T15:23:06.088Z,7.90
2019-03-10T15:25:36.053Z,7.91
2019-03-10T15:28:06.207Z,7.87
2019-03-10T15:30:36.204Z,7.83
2019-03-10T15:33:06.344Z,7.80
2019-03-10T15:35:36.306Z,7.85
2019-03-10T15:38:06.225Z,7.99
2019-03-10T15:40:36.291Z,7.97
2019-03-10T15:43:09.100Z,8.07
2019-03-10T15:45:39.083Z,8.12
2019-03-10T15:48:08.985Z,8.21
2019-03-10T15:50:39.268Z,8.26
2019-03-10T15:53:09.270Z,8.38
2019-03-10T15:55:39.104Z,8.41
2019-03-10T15:58:09.094Z,8.29
2019-03-10T16:00:39.096Z,7.55
2019-03-10T16:03:09.024Z,6.46
2019-03-10T16:05:38.954Z,5.95
2019-03-10T16:08:08.819Z,5.35
2019-03-10T16:10:38.887Z,5.08
2019-03-10T16:13:08.823Z,4.74
2019-03-10T16:15:39.777Z,4.63
2019-03-10T16:18:09.850Z,4.25
2019-03-10T16:20:39.804Z,3.93
2019-03-10T16:23:09.769Z,3.82
2019-03-10T16:25:39.970Z,3.80
2019-03-10T16:28:09.885Z,3.41
2019-03-10T16:30:39.879Z,3.27
2019-03-10T16:33:10.365Z,3.13
2019-03-10T16:35:41.484Z,2.93
2019-03-10T16:38:11.504Z,2.67
2019-03-10T16:40:41.458Z,2.62
2019-03-10T16:43:11.382Z,2.52
2019-03-10T16:45:41.344Z,2.42
2019-03-10T16:48:11.715Z,2.38
2019-03-10T16:50:41.457Z,2.23
2019-03-10T16:53:11.468Z,2.23
2019-03-10T16:55:41.530Z,2.22
2019-03-10T16:58:11.505Z,2.15
2019-03-10T17:00:41.608Z,2.18
2019-03-10T17:03:11.589Z,2.17
2019-03-10T17:05:41.502Z,2.29
2019-03-10T17:08:11.550Z,2.18
2019-03-10T17:10:41.453Z,2.20
2019-03-10T17:13:11.321Z,2.22
2019-03-10T17:15:41.290Z,2.23
2019-03-10T17:18:11.360Z,2.26
2019-03-10T17:20:41.337Z,2.16
2019-03-10T17:23:11.278Z,2.06
2019-03-10T17:25:41.389Z,2.18
2019-03-10T17:28:11.441Z,2.03
2019-03-10T17:30:41.272Z,1.95
2019-03-10T17:33:11.198Z,1.90
2019-03-10T17:35:41.446Z,1.84
2019-03-10T17:38:11.462Z,1.72
2019-03-10T17:40:41.433Z,1.76
2019-03-10T17:43:11.747Z,1.73
2019-03-10T17:45:41.789Z,1.70
2019-03-10T17:48:13.182Z,1.70
2019-03-10T17:50:43.445Z,1.78
2019-03-10T17:53:13.552Z,1.87
2019-03-10T17:55:43.635Z,1.91
2019-03-10T17:58:13.605Z,1.79
2019-03-10T18:00:43.614Z,1.95
2019-03-10T18:03:13.554Z,2.01
2019-03-10T18:05:43.445Z,1.80
2019-03-10T18:08:13.588Z,1.96
2019-03-10T18:10:43.548Z,1.81
2019-03-10T18:13:13.541Z,1.85
2019-03-10T18:15:43.398Z,1.86
2019-03-10T18:18:13.609Z,1.85
2019-03-10T18:20:43.720Z,1.83
2019-03-10T18:23:13.800Z,1.89
2019-03-10T18:25:43.721Z,1.98
2019-03-10T18:28:13.764Z,2.09
2019-03-10T18:30:43.683Z,2.19
2019-03-10T18:33:13.617Z,2.24
2019-03-10T18:35:43.596Z,2.34
2019-03-10T18:38:13.810Z,2.40
2019-03-10T18:40:43.790Z,2.40
2019-03-10T18:43:13.835Z,2.49
2019-03-10T18:45:43.799Z,2.60
2019-03-10T18:48:13.983Z,2.50
2019-03-10T18:50:43.909Z,2.66
2019-03-10T18:53:16.135Z,2.63
2019-03-10T18:55:46.108Z,2.72
2019-03-10T18:58:15.997Z,2.72
2019-03-10T19:00:46.187Z,2.71
2019-03-10T19:03:16.152Z,2.78
2019-03-10T19:05:46.058Z,2.83
2019-03-10T19:08:16.161Z,2.96
2019-03-10T19:10:46.076Z,2.91
2019-03-10T19:13:15.817Z,3.05
2019-03-10T19:15:45.957Z,3.06
2019-03-10T19:18:15.801Z,3.09
2019-03-10T19:20:45.662Z,3.15
2019-03-10T19:23:15.655Z,2.96
2019-03-10T19:25:45.472Z,3.16
2019-03-10T19:28:15.536Z,3.00
2019-03-10T19:30:45.420Z,3.12
2019-03-10T19:33:15.499Z,3.12
2019-03-10T19:35:45.475Z,3.03
2019-03-10T19:38:15.463Z,3.03
2019-03-10T19:40:45.390Z,3.02
2019-03-10T19:43:15.420Z,3.00
2019-03-10T19:45:45.400Z,2.91
2019-03-10T19:48:15.259Z,2.84
2019-03-10T19:50:45.270Z,2.88
2019-03-10T19:53:15.183Z,2.94
2019-03-10T19:55:45.201Z,3.01
2019-03-10T19:58:15.252Z,2.98
2019-03-10T20:00:45.150Z,2.86
2019-03-10T20:03:15.025Z,2.82
2019-03-10T20:05:45.041Z,2.94
2019-03-10T20:08:15.152Z,2.98
2019-03-10T20:10:45.082Z,2.97
2019-03-10T20:13:15.416Z,2.85
2019-03-10T20:15:45.119Z,2.79
2019-03-10T20:18:15.000Z,2.76
2019-03-10T20:20:45.113Z,2.73
2019-03-10T20:23:15.099Z,2.66
2019-03-10T20:25:45.203Z,2.63
2019-03-10T20:28:15.289Z,2.67
2019-03-10T20:30:45.119Z,2.60
2019-03-10T20:33:14.993Z,2.64
2019-03-10T20:35:44.845Z,2.64
2019-03-10T20:38:14.837Z,2.74
2019-03-10T20:40:45.058Z,2.57
2019-03-10T20:43:15.153Z,2.49
2019-03-10T20:45:45.097Z,2.71
2019-03-10T20:48:15.019Z,2.87
2019-03-10T20:50:44.902Z,3.13
2019-03-10T20:53:14.836Z,3.07
2019-03-10T20:55:45.997Z,2.99
2019-03-10T20:58:15.795Z,2.81
2019-03-10T21:00:45.776Z,2.90
2019-03-10T21:03:16.098Z,2.80
2019-03-10T21:05:46.243Z,2.76
2019-03-10T21:08:16.055Z,2.81
2019-03-10T21:10:46.076Z,2.88
2019-03-10T21:13:15.926Z,2.87
2019-03-10T21:15:45.905Z,2.87
2019-03-10T21:18:15.838Z,2.96
2019-03-10T21:20:45.688Z,2.98
2019-03-10T21:23:15.461Z,2.97
2019-03-10T21:25:45.475Z,3.01
2019-03-10T21:28:15.481Z,3.02
2019-03-10T21:30:45.418Z,3.13
2019-03-10T21:33:15.311Z,3.05
2019-03-10T21:35:47.072Z,3.03
2019-03-10T21:38:16.862Z,2.98
2019-03-10T21:40:46.750Z,2.95
2019-03-10T21:43:16.530Z,2.77
2019-03-10T21:45:46.245Z,2.92
2019-03-10T21:48:16.023Z,2.92
2019-03-10T21:50:45.883Z,2.99
2019-03-10T21:53:15.623Z,3.18
2019-03-10T21:55:45.415Z,3.17
2019-03-10T21:58:15.022Z,3.09
2019-03-10T22:00:44.774Z,3.23
2019-03-10T22:03:14.511Z,3.13
2019-03-10T22:05:44.205Z,3.19
2019-03-10T22:08:13.613Z,3.19
2019-03-10T22:10:43.114Z,3.17
2019-03-10T22:13:12.658Z,3.28
2019-03-10T22:15:42.280Z,3.21
2019-03-10T22:18:11.780Z,3.19
2019-03-10T22:20:41.265Z,3.27
2019-03-10T22:23:10.784Z,3.09
2019-03-10T22:25:40.296Z,3.07
2019-03-10T22:28:09.812Z,2.98
2019-03-10T22:30:39.392Z,2.82
2019-03-10T22:33:08.979Z,2.84
2019-03-10T22:35:38.550Z,2.97
2019-03-10T22:38:08.089Z,3.02
2019-03-10T22:40:37.636Z,3.04
2019-03-10T22:43:07.650Z,3.07
2019-03-10T22:45:37.246Z,3.31
2019-03-10T22:48:06.818Z,2.99
2019-03-10T22:50:36.518Z,2.82
2019-03-10T22:53:05.928Z,2.54
2019-03-10T22:55:35.479Z,2.29
2019-03-10T22:58:05.030Z,2.22
2019-03-10T23:00:49.023Z,2.26
2019-03-10T23:03:18.406Z,2.18
2019-03-10T23:05:47.810Z,2.10
2019-03-10T23:08:17.288Z,1.96
2019-03-10T23:10:46.845Z,1.96
2019-03-10T23:13:16.258Z,2.06
2019-03-10T23:15:45.802Z,1.92
2019-03-10T23:18:15.288Z,1.84
2019-03-10T23:20:44.755Z,1.89
2019-03-10T23:23:14.298Z,1.97
2019-03-10T23:25:43.803Z,1.99
2019-03-10T23:28:13.341Z,1.96
2019-03-10T23:30:42.850Z,1.93
2019-03-10T23:33:12.847Z,1.98
2019-03-10T23:35:42.400Z,2.00
2019-03-10T23:38:11.867Z,2.13
2019-03-10T23:40:41.368Z,2.14
2019-03-10T23:43:10.799Z,2.10
2019-03-10T23:45:40.314Z,2.15
2019-03-10T23:48:09.838Z,2.23
2019-03-10T23:50:39.226Z,2.20
2019-03-10T23:53:08.753Z,2.13
2019-03-10T23:55:38.259Z,2.06
2019-03-10T23:58:07.858Z,2.11
